createdAt,value
2023-03-31T00:01:10.219Z,97394.50
2023-03-31T00:06:19.018Z,97392.94
2023-03-31T00:11:22.762Z,97389.91
2023-03-31T00:16:25.800Z,97378.25
2023-03-31T00:21:30.116Z,97381.41
2023-03-31T00:26:33.957Z,97362.94
2023-03-31T00:31:36.502Z,97354.13
2023-03-31T00:36:47.744Z,97350.19
2023-03-31T00:41:50.984Z,97341.53
2023-03-31T00:47:10.729Z,97333.94
2023-03-31T00:52:23.552Z,97327.38
2023-03-31T00:57:28.797Z,97320.75
2023-03-31T01:02:31.659Z,97321.94
2023-03-31T01:07:46.292Z,97318.63
2023-03-31T01:12:52.642Z,97313.47
2023-03-31T01:17:57.779Z,97298.63
2023-03-31T01:23:27.882Z,97261.38
2023-03-31T01:28:55.013Z,97253.19
2023-03-31T01:34:22.018Z,97265.31
2023-03-31T01:40:02.217Z,97269.06
2023-03-31T01:45:26.427Z,97280.59
2023-03-31T01:50:46.992Z,97283.66
2023-03-31T01:56:08.733Z,97280.13
2023-03-31T02:01:31.341Z,97293.47
2023-03-31T02:06:45.298Z,97280.75
2023-03-31T02:11:50.182Z,97279.47
2023-03-31T02:16:58.653Z,97271.44
2023-03-31T02:22:04.628Z,97248.59
2023-03-31T02:27:27.033Z,97241.34
2023-03-31T02:32:44.366Z,97232.56
2023-03-31T02:37:49.935Z,97216.81
2023-03-31T02:42:52.547Z,97171.94
2023-03-31T02:47:55.751Z,97153.22
2023-03-31T02:53:07.767Z,97143.81
2023-03-31T02:58:50.180Z,97134.72
2023-03-31T03:04:13.829Z,97119.00
2023-03-31T03:09:22.779Z,97100.22
2023-03-31T03:14:36.425Z,97080.25
2023-03-31T03:19:41.235Z,97067.69
2023-03-31T03:24:43.730Z,97043.56
2023-03-31T03:29:47.736Z,97026.34
2023-03-31T03:34:50.441Z,97017.91
2023-03-31T03:39:53.177Z,97007.28
2023-03-31T03:44:55.666Z,97000.59
2023-03-31T03:49:58.162Z,96991.53
2023-03-31T03:55:02.103Z,96974.94
2023-03-31T04:00:10.340Z,96954.81
2023-03-31T04:05:13.966Z,96949.53
2023-03-31T04:10:16.590Z,96933.47
2023-03-31T04:15:19.041Z,96916.97
2023-03-31T04:20:22.075Z,96901.13
2023-03-31T04:25:24.824Z,96898.41
2023-03-31T04:30:31.405Z,96895.38
2023-03-31T04:35:49.800Z,96891.78
2023-03-31T04:40:53.530Z,96898.28
2023-03-31T04:45:56.410Z,96884.81
2023-03-31T04:50:58.991Z,96872.72
2023-03-31T04:56:02.213Z,96870.72
2023-03-31T05:01:08.967Z,96866.94
2023-03-31T05:06:11.609Z,96853.09
2023-03-31T05:11:14.140Z,96850.22
2023-03-31T05:16:17.616Z,96873.75
2023-03-31T05:21:21.765Z,96888.06
2023-03-31T05:26:25.547Z,96912.84
2023-03-31T05:31:28.263Z,96906.78
2023-03-31T05:36:32.600Z,96906.91
2023-03-31T05:41:35.208Z,96888.13
2023-03-31T05:46:37.727Z,96879.50
2023-03-31T05:51:40.206Z,96855.75
2023-03-31T05:56:42.797Z,96848.78
2023-03-31T06:01:45.444Z,96828.56
2023-03-31T06:06:50.546Z,96833.13
2023-03-31T06:11:53.261Z,96819.50
2023-03-31T06:16:57.731Z,96803.66
2023-03-31T06:22:01.056Z,96792.38
2023-03-31T06:27:04.139Z,96782.72
2023-03-31T06:32:06.872Z,96780.91
2023-03-31T06:37:09.453Z,96775.16
2023-03-31T06:42:12.057Z,96793.56
2023-03-31T06:47:16.645Z,96790.56
2023-03-31T06:52:19.217Z,96807.75
2023-03-31T06:57:21.888Z,96832.66
2023-03-31T07:02:24.574Z,96859.97
2023-03-31T07:07:27.197Z,96873.84
2023-03-31T07:12:32.728Z,96854.84
2023-03-31T07:17:37.791Z,96805.66
2023-03-31T07:22:41.773Z,96788.44
2023-03-31T07:27:44.912Z,96769.13
2023-03-31T07:32:49.087Z,96761.25
2023-03-31T07:37:52.528Z,96774.25
2023-03-31T07:42:55.824Z,96767.28
2023-03-31T07:47:58.518Z,96769.31
2023-03-31T07:53:01.395Z,96767.41
2023-03-31T07:58:04.123Z,96751.03
2023-03-31T08:03:07.287Z,96759.44
2023-03-31T08:08:09.989Z,96757.13
2023-03-31T08:13:12.649Z,96751.50
2023-03-31T08:18:15.871Z,96747.16
2023-03-31T08:23:18.566Z,96741.63
2023-03-31T08:28:21.218Z,96724.00
2023-03-31T08:33:23.838Z,96731.66
2023-03-31T08:38:27.562Z,96726.31
2023-03-31T08:43:34.944Z,96711.53
2023-03-31T08:48:45.392Z,96711.16
2023-03-31T08:54:08.335Z,96732.63
2023-03-31T08:59:39.273Z,96720.88
2023-03-31T09:05:11.645Z,96709.44
2023-03-31T09:10:20.434Z,96715.38
2023-03-31T09:15:41.932Z,96708.94
2023-03-31T09:20:52.645Z,96689.56
2023-03-31T09:25:58.035Z,96689.16
2023-03-31T09:31:04.111Z,96694.09
2023-03-31T09:36:17.264Z,96701.00
2023-03-31T09:41:20.808Z,96706.91
2023-03-31T09:46:35.108Z,96714.34
2023-03-31T09:51:41.737Z,96689.50
2023-03-31T09:56:44.265Z,96687.75
2023-03-31T10:01:49.916Z,96672.38
2023-03-31T10:06:54.285Z,96651.50
2023-03-31T10:12:08.972Z,96633.31
2023-03-31T10:17:17.747Z,96630.03
2023-03-31T10:22:23.049Z,96644.28
2023-03-31T10:27:29.560Z,96640.25
2023-03-31T10:32:41.963Z,96618.28
2023-03-31T10:37:44.616Z,96610.09
2023-03-31T10:42:58.421Z,96582.38
2023-03-31T10:48:01.881Z,96580.63
2023-03-31T10:53:16.505Z,96589.50
2023-03-31T10:58:37.388Z,96584.38
2023-03-31T11:04:16.341Z,96550.94
2023-03-31T11:09:43.689Z,96576.31
2023-03-31T11:14:54.278Z,96576.16
2023-03-31T11:20:13.018Z,96651.47
2023-03-31T11:25:38.343Z,96774.63
2023-03-31T11:30:48.853Z,96740.28
2023-03-31T11:36:14.870Z,96723.63
2023-03-31T11:41:30.068Z,96725.56
2023-03-31T11:47:02.378Z,96734.66
2023-03-31T11:52:11.732Z,96712.97
2023-03-31T11:57:42.863Z,96705.25
2023-03-31T12:02:54.846Z,96686.47
2023-03-31T12:08:11.613Z,96657.03
2023-03-31T12:13:23.110Z,96662.28
2023-03-31T12:18:29.592Z,96632.28
2023-03-31T12:23:38.392Z,96620.84
2023-03-31T12:28:43.129Z,96631.94
2023-03-31T12:33:54.251Z,96619.50
2023-03-31T12:39:13.705Z,96613.66
2023-03-31T12:44:37.115Z,96577.16
2023-03-31T12:50:04.594Z,96573.28
2023-03-31T12:55:37.952Z,96572.47
2023-03-31T13:01:15.019Z,96575.03
2023-03-31T13:06:29.436Z,96594.59
2023-03-31T13:11:37.945Z,96590.88
2023-03-31T13:16:40.989Z,96595.09
2023-03-31T13:22:01.579Z,96605.06
2023-03-31T13:27:30.273Z,96640.81
2023-03-31T13:32:33.231Z,96624.47
2023-03-31T13:37:54.498Z,96606.53
2023-03-31T13:43:15.371Z,96618.19
2023-03-31T13:48:36.383Z,96618.25
2023-03-31T13:53:57.890Z,96607.31
2023-03-31T13:59:59.059Z,96588.97
2023-03-31T14:05:31.863Z,96548.09
2023-03-31T14:10:37.102Z,96555.31
2023-03-31T14:16:08.786Z,96546.19
2023-03-31T14:21:38.504Z,96558.56
2023-03-31T14:26:53.732Z,96548.63
2023-03-31T14:32:40.497Z,96567.47
2023-03-31T14:37:43.736Z,96565.72
2023-03-31T14:42:50.118Z,96568.19
2023-03-31T14:48:16.619Z,96557.66
2023-03-31T14:53:24.847Z,96557.75
2023-03-31T14:58:35.171Z,96562.16
2023-03-31T15:03:44.364Z,96542.97
2023-03-31T15:08:47.025Z,96537.75
2023-03-31T15:14:04.527Z,96529.78
2023-03-31T15:19:16.436Z,96519.06
2023-03-31T15:24:19.729Z,96502.06
2023-03-31T15:29:38.581Z,96508.38
2023-03-31T15:34:43.471Z,96513.13
2023-03-31T15:39:48.290Z,96522.38
2023-03-31T15:45:21.943Z,96528.59
2023-03-31T15:50:25.006Z,96528.44
2023-03-31T15:55:31.497Z,96538.56
2023-03-31T16:01:05.239Z,96533.81
2023-03-31T16:06:24.200Z,96537.44
2023-03-31T16:11:56.350Z,96546.66
2023-03-31T16:17:14.538Z,96554.78
2023-03-31T16:22:21.894Z,96588.84
2023-03-31T16:27:24.760Z,96586.56
2023-03-31T16:32:27.443Z,96607.06
2023-03-31T16:37:30.144Z,96574.19
2023-03-31T16:42:36.003Z,96565.75
2023-03-31T16:47:38.697Z,96565.38
2023-03-31T16:52:41.361Z,96565.75
2023-03-31T16:57:43.882Z,96542.88
2023-03-31T17:02:46.575Z,96539.91
2023-03-31T17:07:49.500Z,96546.28
2023-03-31T17:12:52.447Z,96558.91
2023-03-31T17:17:55.176Z,96560.03
2023-03-31T17:22:58.728Z,96563.25
2023-03-31T17:28:02.263Z,96568.66
2023-03-31T17:33:05.605Z,96576.53
2023-03-31T17:38:09.933Z,96599.31
2023-03-31T17:43:14.178Z,96585.72
2023-03-31T17:48:16.693Z,96582.84
2023-03-31T17:53:19.233Z,96598.75
2023-03-31T17:58:22.940Z,96603.84
2023-03-31T18:03:28.945Z,96604.97
2023-03-31T18:08:32.305Z,96622.69
2023-03-31T18:13:36.537Z,96642.66
2023-03-31T18:18:39.826Z,96650.47
2023-03-31T18:23:42.435Z,96628.16
2023-03-31T18:28:45.281Z,96617.28
2023-03-31T18:33:48.300Z,96618.81
2023-03-31T18:38:51.634Z,96611.03
2023-03-31T18:43:54.363Z,96616.84
2023-03-31T18:48:56.876Z,96606.81
2023-03-31T18:53:59.595Z,96593.09
2023-03-31T18:59:05.046Z,96585.41
2023-03-31T19:04:08.969Z,96607.22
2023-03-31T19:09:11.818Z,96593.09
2023-03-31T19:14:14.329Z,96598.88
2023-03-31T19:19:17.000Z,96597.34
2023-03-31T19:24:20.109Z,96610.72
2023-03-31T19:29:22.654Z,96604.38
2023-03-31T19:34:25.205Z,96603.97
2023-03-31T19:39:28.404Z,96601.75
2023-03-31T19:44:31.352Z,96612.00
2023-03-31T19:49:34.149Z,96606.25
2023-03-31T19:54:37.005Z,96615.22
2023-03-31T19:59:51.852Z,96607.09
2023-03-31T20:04:54.392Z,96614.09
2023-03-31T20:09:56.909Z,96610.06
2023-03-31T20:14:59.473Z,96601.56
2023-03-31T20:20:02.872Z,96624.34
2023-03-31T20:25:06.700Z,96625.31
2023-03-31T20:30:10.324Z,96620.41
2023-03-31T20:35:13.740Z,96628.66
2023-03-31T20:40:16.310Z,96627.56
2023-03-31T20:45:20.764Z,96631.69
2023-03-31T20:50:23.341Z,96629.16
2023-03-31T20:55:25.914Z,96637.56
2023-03-31T21:00:28.525Z,96646.72
2023-03-31T21:05:31.582Z,96641.44
2023-03-31T21:10:40.991Z,96655.59
2023-03-31T21:15:50.446Z,96640.47
2023-03-31T21:20:55.992Z,96649.41
2023-03-31T21:26:01.636Z,96652.75
2023-03-31T21:31:07.116Z,96639.75
2023-03-31T21:36:12.902Z,96664.94
2023-03-31T21:41:22.775Z,96669.47
2023-03-31T21:46:28.231Z,96669.19
2023-03-31T21:51:31.178Z,96659.50
2023-03-31T21:56:34.340Z,96684.59
2023-03-31T22:01:37.294Z,96679.44
2023-03-31T22:06:39.906Z,96686.38
2023-03-31T22:11:42.514Z,96671.91
2023-03-31T22:16:45.043Z,96685.50
2023-03-31T22:21:48.689Z,96673.72
2023-03-31T22:27:06.917Z,96687.44
2023-03-31T22:32:09.410Z,96686.94
2023-03-31T22:37:11.965Z,96684.22
2023-03-31T22:42:14.521Z,96677.88
2023-03-31T22:47:17.705Z,96685.44
2023-03-31T22:52:20.343Z,96680.09
2023-03-31T22:57:22.996Z,96688.06
2023-03-31T23:02:25.624Z,96674.19
2023-03-31T23:07:29.492Z,96671.78
2023-03-31T23:12:35.169Z,96672.25
2023-03-31T23:17:37.802Z,96676.91
2023-03-31T23:22:40.572Z,96671.78
2023-03-31T23:27:43.093Z,96665.16
2023-03-31T23:32:45.787Z,96661.56
2023-03-31T23:37:48.354Z,96674.69
2023-03-31T23:42:51.097Z,96660.38
2023-03-31T23:47:53.664Z,96673.75
2023-03-31T23:52:59.494Z,96659.94
2023-03-31T23:58:02.880Z,96658.88
